Time;durP1;ratioP1;P1;durP2;ratioP2;P2;SDS_P1;SDS_P2;PMS_P1;PMS_P2;Temp;Humidity;BMP_temperature;BMP_pressure;BME280_temperature;BME280_humidity;BME280_pressure;Samples;Min_cycle;Max_cycle;Signal;HPM_P1;HPM_P2
2022/01/11 00:01:42;;;;;;;6.10;4.68;;;;;;;21.61;35.33;103054.41;5055566;28;20048;-71
2022/01/11 00:04:12;;;;;;;6.43;4.82;;;;;;;21.59;35.36;103051.06;5052227;28;20387;-71
2022/01/11 00:06:45;;;;;;;6.32;4.50;;;;;;;21.51;35.60;103055.34;5024343;28;20036;-71
2022/01/11 00:09:33;;;;;;;6.38;4.50;;;;;;;21.34;35.60;103059.50;5057800;28;20068;-71
2022/01/11 00:11:59;;;;;;;5.53;4.53;;;;;;;21.29;35.76;103061.75;5041292;28;20119;-71
2022/01/11 00:14:25;;;;;;;5.72;4.53;;;;;;;21.25;35.72;103058.53;5055447;28;20040;-71
2022/01/11 00:16:51;;;;;;;6.30;4.75;;;;;;;21.26;35.80;103057.53;5057700;28;20748;-71
2022/01/11 00:19:17;;;;;;;5.55;4.40;;;;;;;21.12;35.74;103061.38;5057614;28;20027;-71
2022/01/11 00:21:47;;;;;;;6.47;4.97;;;;;;;21.03;36.10;103053.41;5052883;28;20037;-71
2022/01/11 00:24:30;;;;;;;5.95;4.65;;;;;;;21.10;35.94;103065.13;5057928;28;20390;-72
2022/01/11 00:27:00;;;;;;;6.65;4.75;;;;;;;21.04;36.04;103069.16;5052420;28;20493;-71
2022/01/11 00:29:26;;;;;;;6.72;4.75;;;;;;;20.94;36.31;103075.38;5056357;28;20921;-71
2022/01/11 00:31:54;;;;;;;7.18;5.03;;;;;;;20.90;36.18;103077.47;5025586;28;20040;-71
2022/01/11 00:34:22;;;;;;;6.05;4.30;;;;;;;20.73;36.42;103072.78;5059340;28;20036;-71
2022/01/11 00:36:48;;;;;;;5.10;4.20;;;;;;;20.76;36.54;103083.09;5040179;28;20070;-71
2022/01/11 00:39:13;;;;;;;6.18;4.45;;;;;;;20.65;36.76;103084.03;5040113;28;20159;-71
2022/01/11 00:41:43;;;;;;;5.65;4.13;;;;;;;20.62;36.54;103070.19;5041365;28;20380;-71
2022/01/11 00:44:10;;;;;;;6.22;4.10;;;;;;;20.59;36.65;103081.06;5052961;28;20040;-71
2022/01/11 00:46:36;;;;;;;5.43;4.07;;;;;;;20.58;36.63;103089.97;5036157;28;20055;-71
2022/01/11 00:49:02;;;;;;;6.07;3.95;;;;;;;20.62;36.72;103086.09;5053449;28;20041;-71
2022/01/11 00:51:28;;;;;;;5.43;4.45;;;;;;;20.56;36.70;103083.97;5057288;28;20033;-71
2022/01/11 00:53:54;;;;;;;5.40;4.03;;;;;;;20.44;36.94;103080.53;5039894;28;20493;-71
2022/01/11 00:56:19;;;;;;;5.82;3.80;;;;;;;20.38;37.04;103083.69;5059061;28;20074;-71
2022/01/11 00:58:47;;;;;;;7.78;4.35;;;;;;;20.37;37.08;103082.84;5032918;28;20138;-71
2022/01/11 01:01:13;;;;;;;7.13;4.45;;;;;;;20.30;37.18;103078.22;5055995;28;20041;-71
2022/01/11 01:03:39;;;;;;;5.05;4.00;;;;;;;20.29;37.11;103084.44;5040948;28;20040;-71
2022/01/11 01:06:05;;;;;;;5.57;4.40;;;;;;;20.33;37.13;103076.13;5036007;28;20040;-71
2022/01/11 01:08:31;;;;;;;5.50;4.05;;;;;;;20.30;37.10;103076.41;5038063;28;20036;-71
2022/01/11 01:10:57;;;;;;;6.07;4.40;;;;;;;20.24;37.22;103082.19;5053756;28;20115;-71
2022/01/11 01:13:28;;;;;;;6.57;3.72;;;;;;;20.19;37.23;103077.28;5039443;28;20037;-71
2022/01/11 01:16:05;;;;;;;5.15;4.10;;;;;;;20.14;37.33;103090.06;5035766;28;20161;-71
2022/01/11 01:18:55;;;;;;;6.38;3.97;;;;;;;20.13;37.27;103100.78;5038357;28;21789;-71
2022/01/11 01:21:21;;;;;;;4.97;3.97;;;;;;;20.12;37.15;103101.75;5038191;28;20044;-71
2022/01/11 01:23:48;;;;;;;6.00;3.78;;;;;;;20.11;37.35;103100.06;5058743;28;20037;-71
2022/01/11 01:26:17;;;;;;;5.60;3.90;;;;;;;20.07;37.52;103099.44;5055080;28;20055;-71
2022/01/11 01:28:44;;;;;;;6.27;3.80;;;;;;;20.05;37.28;103097.91;5051821;28;20058;-71
2022/01/11 01:31:10;;;;;;;5.13;3.72;;;;;;;20.03;37.41;103098.03;5034800;28;20041;-71
2022/01/11 01:33:35;;;;;;;5.82;4.25;;;;;;;20.08;37.22;103095.00;5039718;28;20082;-71
2022/01/11 01:36:05;;;;;;;6.05;4.35;;;;;;;20.02;37.30;103104.28;5039405;28;20043;-71
2022/01/11 01:38:32;;;;;;;5.93;4.20;;;;;;;20.04;37.32;103102.34;5055024;28;20055;-71
2022/01/11 01:41:08;;;;;;;6.13;4.10;;;;;;;20.04;37.16;103102.34;5049853;28;20090;-71
2022/01/11 01:43:34;;;;;;;5.47;4.00;;;;;;;19.89;37.52;103100.97;5040177;28;20041;-71
2022/01/11 01:46:01;;;;;;;6.20;4.00;;;;;;;19.92;37.42;103109.47;5039308;28;20048;-71
2022/01/11 01:48:27;;;;;;;5.72;4.20;;;;;;;19.96;37.33;103109.25;5037719;28;20076;-71
2022/01/11 01:50:53;;;;;;;6.05;4.30;;;;;;;19.94;37.38;103111.19;5054808;28;20172;-71
2022/01/11 01:53:19;;;;;;;4.43;3.60;;;;;;;19.88;37.45;103112.50;5052830;28;20028;-71
2022/01/11 01:55:46;;;;;;;5.82;3.90;;;;;;;19.81;37.61;103124.56;5058967;28;20077;-71
2022/01/11 01:58:14;;;;;;;4.90;3.95;;;;;;;19.84;37.52;103122.50;5038264;28;20032;-71
2022/01/11 02:00:43;;;;;;;5.57;3.60;;;;;;;19.80;37.09;103133.44;5057474;28;20036;-71
2022/01/11 02:03:12;;;;;;;5.70;4.00;;;;;;;19.82;37.33;103136.81;5052240;28;20036;-71
2022/01/11 02:05:42;;;;;;;5.97;4.03;;;;;;;19.73;37.64;103137.53;5057288;28;20032;-71
2022/01/11 02:08:09;;;;;;;6.18;4.22;;;;;;;19.67;37.78;103143.31;5038471;28;20060;-71
2022/01/11 02:10:39;;;;;;;5.57;3.75;;;;;;;19.64;37.77;103140.94;5040690;28;20021;-71
2022/01/11 02:13:06;;;;;;;4.95;3.85;;;;;;;19.68;37.69;103132.63;5048645;28;20039;-71
2022/01/11 02:15:32;;;;;;;5.88;4.10;;;;;;;19.73;37.51;103146.31;5038110;28;20128;-71
2022/01/11 02:18:10;;;;;;;5.85;4.15;;;;;;;19.71;37.51;103137.66;5036811;28;20032;-71
2022/01/11 02:20:43;;;;;;;6.95;4.55;;;;;;;19.65;37.70;103140.81;5039520;28;20049;-71
2022/01/11 02:23:09;;;;;;;5.35;3.88;;;;;;;19.64;37.47;103127.72;5037536;28;20049;-71
2022/01/11 02:25:36;;;;;;;3.92;3.22;;;;;;;19.59;37.70;103136.03;5051733;28;20159;-71
2022/01/11 02:28:02;;;;;;;6.13;4.35;;;;;;;19.66;37.47;103136.34;5037214;28;20063;-71
2022/01/11 02:30:32;;;;;;;5.63;3.95;;;;;;;19.60;37.60;103133.25;5051275;28;20135;-71
2022/01/11 02:32:58;;;;;;;6.25;4.13;;;;;;;19.65;37.53;103137.31;5056344;28;20591;-71
2022/01/11 02:35:26;;;;;;;5.72;4.13;;;;;;;19.58;37.64;103135.19;5034899;28;20047;-71
2022/01/11 02:37:51;;;;;;;5.30;3.90;;;;;;;19.58;37.75;103129.91;5040291;28;20020;-71
2022/01/11 02:40:17;;;;;;;5.13;4.43;;;;;;;19.54;37.68;103125.78;5037920;28;20036;-71
2022/01/11 02:42:43;;;;;;;5.95;4.05;;;;;;;19.51;37.61;103127.81;5038153;28;20052;-71
2022/01/11 02:45:14;;;;;;;5.82;4.00;;;;;;;19.53;37.45;103134.66;5040210;28;20048;-70
2022/01/11 02:47:40;;;;;;;5.13;3.95;;;;;;;19.44;37.71;103137.19;5034135;28;20526;-70
2022/01/11 02:50:08;;;;;;;6.40;4.43;;;;;;;19.40;37.80;103123.41;5031854;28;20041;-70
2022/01/11 02:52:40;;;;;;;5.65;3.92;;;;;;;19.39;37.85;103123.50;5046353;28;21268;-70
2022/01/11 02:55:11;;;;;;;5.35;3.78;;;;;;;19.42;37.71;103137.31;5032275;28;20036;-70
2022/01/11 02:57:37;;;;;;;5.82;3.80;;;;;;;19.42;37.83;103133.84;5029723;28;20080;-70
2022/01/11 03:00:18;;;;;;;6.15;4.05;;;;;;;19.39;37.75;103134.06;5035188;28;20040;-71
2022/01/11 03:02:44;;;;;;;6.15;4.38;;;;;;;19.43;37.60;103132.88;5033570;28;20036;-70
2022/01/11 03:05:11;;;;;;;6.75;4.07;;;;;;;19.35;37.75;103124.69;5034036;28;20562;-70
2022/01/11 03:07:38;;;;;;;5.60;4.28;;;;;;;19.36;37.72;103123.75;5030922;28;20110;-71
2022/01/11 03:10:23;;;;;;;5.03;3.88;;;;;;;19.35;37.78;103120.25;5019220;28;20443;-70
2022/01/11 03:12:51;;;;;;;5.20;3.63;;;;;;;19.41;37.56;103119.78;5039149;28;20124;-71
2022/01/11 03:15:16;;;;;;;6.30;3.90;;;;;;;19.27;37.66;103112.94;5034517;28;20044;-70
2022/01/11 03:17:45;;;;;;;6.40;3.88;;;;;;;19.27;37.85;103122.69;5035185;28;20029;-70
2022/01/11 03:20:12;;;;;;;6.68;4.30;;;;;;;19.32;37.73;103113.41;5016445;28;20790;-70
2022/01/11 03:22:38;;;;;;;5.43;4.07;;;;;;;19.31;37.57;103113.53;5032773;28;20116;-70
2022/01/11 03:25:06;;;;;;;6.68;4.40;;;;;;;19.24;37.75;103121.13;5030714;28;20040;-70
2022/01/11 03:27:34;;;;;;;5.28;4.03;;;;;;;19.26;37.68;103124.47;5034402;28;20029;-70
2022/01/11 03:30:02;;;;;;;5.97;3.70;;;;;;;19.24;37.78;103131.69;5030545;28;20055;-70
2022/01/11 03:32:29;;;;;;;5.45;4.22;;;;;;;19.24;37.87;103133.50;5034897;28;20102;-70
2022/01/11 03:34:55;;;;;;;6.00;4.18;;;;;;;19.24;37.72;103130.84;5033983;28;20045;-71
2022/01/11 03:37:21;;;;;;;5.50;3.85;;;;;;;19.22;37.69;103123.03;5032074;28;20029;-71
2022/01/11 03:39:47;;;;;;;6.28;4.38;;;;;;;19.20;37.87;103132.03;5037801;28;20830;-70
2022/01/11 03:42:14;;;;;;;5.72;4.25;;;;;;;19.21;37.80;103133.69;5038010;28;20033;-70
2022/01/11 03:44:40;;;;;;;5.20;3.78;;;;;;;19.17;37.74;103132.25;5039446;28;20052;-70
2022/01/11 03:47:06;;;;;;;7.25;4.60;;;;;;;19.13;38.01;103128.19;5039328;28;20049;-70
2022/01/11 03:49:31;;;;;;;6.78;4.43;;;;;;;19.14;37.91;103133.34;5036312;28;20045;-70
2022/01/11 03:51:57;;;;;;;6.10;4.45;;;;;;;19.10;37.67;103131.91;5037989;28;20094;-70
2022/01/11 03:54:26;;;;;;;6.32;3.80;;;;;;;19.12;37.92;103145.00;5040285;28;20068;-70
2022/01/11 03:57:07;;;;;;;6.88;4.68;;;;;;;19.07;37.94;103139.25;5039450;28;20044;-70
2022/01/11 03:59:38;;;;;;;6.18;4.35;;;;;;;18.99;38.10;103135.38;5054602;28;20097;-70
2022/01/11 04:02:04;;;;;;;8.00;4.75;;;;;;;19.00;37.91;103136.22;5033058;28;20041;-70
2022/01/11 04:04:29;;;;;;;5.63;4.03;;;;;;;18.95;38.03;103141.84;5044710;28;20416;-70
2022/01/11 04:06:56;;;;;;;6.05;4.40;;;;;;;18.93;38.17;103132.38;5037881;28;20040;-70
2022/01/11 04:09:21;;;;;;;6.47;4.53;;;;;;;18.96;37.99;103127.69;5040350;28;20128;-70
2022/01/11 04:11:47;;;;;;;6.63;4.28;;;;;;;19.09;37.79;103135.50;5035766;28;20888;-70
2022/01/11 04:14:13;;;;;;;6.65;4.43;;;;;;;18.81;37.71;103093.72;5035125;28;20045;-70
2022/01/11 04:16:39;;;;;;;5.72;3.80;;;;;;;19.09;37.74;103137.31;5039113;28;20044;-70
2022/01/11 04:19:09;;;;;;;6.47;4.18;;;;;;;19.14;37.82;103136.00;5041423;28;20883;-70
2022/01/11 04:21:36;;;;;;;5.40;4.20;;;;;;;19.19;37.76;103136.47;5028362;28;20017;-70
2022/01/11 04:24:03;;;;;;;6.30;4.22;;;;;;;19.35;37.21;103132.63;5018447;28;20438;-70
2022/01/11 04:26:28;;;;;;;7.25;4.40;;;;;;;19.38;37.26;103135.03;5028578;28;20060;-70
2022/01/11 04:29:00;;;;;;;6.57;4.30;;;;;;;19.54;37.22;103132.88;5049834;28;20032;-70
2022/01/11 04:31:26;;;;;;;6.03;3.92;;;;;;;19.65;37.11;103132.88;5036013;28;20037;-70
2022/01/11 04:33:51;;;;;;;6.85;4.32;;;;;;;19.76;36.66;103132.88;5035707;28;20087;-71
2022/01/11 04:36:18;;;;;;;6.32;4.18;;;;;;;19.95;36.49;103124.28;5036674;28;20040;-70
2022/01/11 04:38:43;;;;;;;7.85;4.55;;;;;;;20.09;36.55;103117.84;5035162;28;20183;-70
2022/01/11 04:41:10;;;;;;;5.50;4.18;;;;;;;20.23;36.47;103114.91;5035704;28;20144;-70
2022/01/11 04:43:41;;;;;;;6.15;4.35;;;;;;;20.32;36.21;103106.22;5041551;28;20573;-70
2022/01/11 04:46:07;;;;;;;7.20;4.22;;;;;;;20.30;36.29;103113.44;5036439;28;20050;-70
2022/01/11 04:48:33;;;;;;;6.38;4.28;;;;;;;20.34;36.48;103106.09;5053073;28;20155;-70
2022/01/11 04:51:03;;;;;;;6.20;4.03;;;;;;;20.27;36.52;103107.53;5052374;28;20064;-70
2022/01/11 04:53:28;;;;;;;6.22;4.10;;;;;;;20.35;36.47;103100.66;5037315;28;20553;-70
2022/01/11 04:55:56;;;;;;;4.82;3.42;;;;;;;20.37;36.27;103092.59;5019719;28;20048;-70
2022/01/11 04:58:22;;;;;;;5.75;3.92;;;;;;;20.43;36.00;103098.22;5041683;28;20460;-70
2022/01/11 05:00:49;;;;;;;6.03;4.30;;;;;;;20.52;36.25;103096.63;5036634;28;20536;-71
2022/01/11 05:03:18;;;;;;;7.25;4.32;;;;;;;20.55;36.25;103101.66;5038260;28;20148;-70
2022/01/11 05:05:46;;;;;;;6.30;4.18;;;;;;;20.53;36.51;103103.59;5040076;28;20028;-70
2022/01/11 05:08:13;;;;;;;6.70;3.92;;;;;;;20.69;36.01;103113.72;5038118;28;20065;-70
2022/01/11 05:10:42;;;;;;;7.75;4.20;;;;;;;20.74;35.57;103099.13;5038834;28;20078;-70
2022/01/11 05:13:13;;;;;;;6.72;4.18;;;;;;;20.84;36.00;103106.28;5038162;28;20032;-71
2022/01/11 05:15:39;;;;;;;6.35;4.40;;;;;;;20.93;35.88;103101.03;5035736;28;20612;-70
2022/01/11 05:18:07;;;;;;;6.40;4.40;;;;;;;20.99;35.64;103102.31;5033156;28;20033;-71
2022/01/11 05:20:34;;;;;;;6.90;4.80;;;;;;;21.00;35.71;103096.03;5035437;28;20059;-70
2022/01/11 05:23:00;;;;;;;6.72;4.80;;;;;;;21.00;35.51;103085.44;5053788;28;20044;-70
2022/01/11 05:25:25;;;;;;;7.13;4.63;;;;;;;20.84;35.70;103051.53;5036562;28;20485;-71
2022/01/11 05:27:51;;;;;;;6.90;4.25;;;;;;;21.13;35.81;103096.66;5033462;28;20043;-71
2022/01/11 05:30:19;;;;;;;6.32;4.70;;;;;;;21.24;35.48;103093.06;5037567;28;20063;-71
2022/01/11 05:32:48;;;;;;;7.40;4.32;;;;;;;21.29;35.31;103093.53;5034346;28;20036;-70
2022/01/11 05:35:15;;;;;;;7.05;4.93;;;;;;;21.11;35.75;103098.59;5040598;28;20407;-70
2022/01/11 05:37:41;;;;;;;6.75;4.20;;;;;;;21.10;35.78;103100.41;5037990;28;20250;-71
2022/01/11 05:40:09;;;;;;;7.65;4.25;;;;;;;21.06;35.60;103095.53;5056021;28;20549;-70
2022/01/11 05:42:35;;;;;;;5.93;4.13;;;;;;;21.03;35.94;103114.34;5039028;28;20036;-70
2022/01/11 05:45:01;;;;;;;8.10;4.85;;;;;;;20.99;36.09;103116.38;5053887;28;20048;-70
2022/01/11 05:47:26;;;;;;;7.13;4.80;;;;;;;20.96;36.15;103121.13;5035230;28;20045;-70
2022/01/11 05:49:52;;;;;;;7.03;4.07;;;;;;;20.97;36.21;103123.63;5035174;28;20037;-71
2022/01/11 05:52:18;;;;;;;7.90;4.55;;;;;;;20.93;36.14;103122.22;5036268;28;20040;-71
2022/01/11 05:54:44;;;;;;;5.72;4.38;;;;;;;20.92;36.15;103117.91;5022629;28;20040;-70
2022/01/11 05:57:10;;;;;;;6.75;4.30;;;;;;;20.95;36.01;103124.72;5037760;28;20032;-70
2022/01/11 05:59:36;;;;;;;6.95;4.47;;;;;;;21.03;35.89;103122.28;5038549;28;20040;-71
2022/01/11 06:02:02;;;;;;;6.38;4.32;;;;;;;20.93;35.99;103119.56;5036105;28;20055;-71
2022/01/11 06:04:28;;;;;;;7.10;4.80;;;;;;;21.10;35.71;103137.50;5036983;28;20423;-71
2022/01/11 06:06:55;;;;;;;7.70;4.50;;;;;;;21.00;35.95;103139.25;5053828;28;20119;-70
2022/01/11 06:09:25;;;;;;;6.32;4.85;;;;;;;21.07;35.91;103140.41;5037567;28;20056;-70
2022/01/11 06:11:52;;;;;;;7.43;4.47;;;;;;;21.11;35.79;103148.94;5035943;28;20754;-71
2022/01/11 06:14:19;;;;;;;7.88;4.60;;;;;;;21.19;35.89;103143.84;5036798;28;20037;-71
2022/01/11 06:16:45;;;;;;;7.05;4.88;;;;;;;21.32;35.43;103151.56;5021394;28;20481;-71
2022/01/11 06:19:11;;;;;;;7.50;5.10;;;;;;;21.37;35.36;103150.22;5037470;28;20366;-71
2022/01/11 06:21:45;;;;;;;7.20;4.68;;;;;;;21.39;35.50;103158.88;5023788;28;20190;-71
2022/01/11 06:24:11;;;;;;;7.28;4.65;;;;;;;21.45;35.52;103156.66;5037333;28;20036;-71
2022/01/11 06:26:37;;;;;;;8.55;4.65;;;;;;;21.49;35.39;103158.88;5053992;28;20047;-71
2022/01/11 06:29:03;;;;;;;8.57;5.10;;;;;;;21.41;35.53;103156.09;5035143;28;20044;-70
2022/01/11 06:31:30;;;;;;;6.75;4.35;;;;;;;21.48;35.33;103156.38;5036520;28;20068;-71
2022/01/11 06:33:56;;;;;;;9.60;4.80;;;;;;;21.31;35.40;103153.38;5017675;28;20063;-70
2022/01/11 06:36:22;;;;;;;6.75;4.60;;;;;;;21.29;35.74;103159.78;5056837;28;20479;-71
2022/01/11 06:38:47;;;;;;;8.95;5.18;;;;;;;21.20;35.74;103164.06;5033897;28;20487;-71
2022/01/11 06:41:19;;;;;;;7.95;4.75;;;;;;;21.20;35.88;103157.91;5038596;28;20123;-71
2022/01/11 06:43:45;;;;;;;7.85;4.88;;;;;;;21.18;35.84;103157.19;5034777;28;20576;-70
2022/01/11 06:46:12;;;;;;;9.82;5.15;;;;;;;21.24;35.74;103172.56;5048919;28;20174;-70
2022/01/11 06:48:37;;;;;;;9.63;5.70;;;;;;;21.17;35.65;103171.41;5033609;28;20537;-70
2022/01/11 06:51:03;;;;;;;8.02;5.20;;;;;;;21.30;35.60;103175.56;5033559;28;20044;-71
2022/01/11 06:53:38;;;;;;;8.73;5.07;;;;;;;21.27;35.48;103173.19;5041276;28;20044;-71
2022/01/11 06:56:04;;;;;;;8.63;5.15;;;;;;;21.33;35.42;103169.97;5035781;28;20479;-71
2022/01/11 06:58:31;;;;;;;9.23;5.13;;;;;;;21.39;35.49;103164.16;5039633;28;20120;-70
2022/01/11 07:00:57;;;;;;;9.95;5.82;;;;;;;21.28;35.74;103168.72;5037650;28;20085;-70
2022/01/11 07:03:22;;;;;;;10.02;5.40;;;;;;;21.27;35.46;103170.53;5037911;28;20032;-70
2022/01/11 07:05:53;;;;;;;8.30;5.35;;;;;;;21.26;35.67;103174.16;5036604;28;20143;-70
2022/01/11 07:08:19;;;;;;;9.10;5.80;;;;;;;21.29;35.44;103173.03;5035612;28;20047;-71
2022/01/11 07:10:46;;;;;;;8.35;5.03;;;;;;;21.15;35.58;103168.88;5034865;28;20371;-70
2022/01/11 07:13:12;;;;;;;6.90;4.90;;;;;;;21.09;35.66;103164.97;5017613;28;20040;-71
2022/01/11 07:15:39;;;;;;;9.30;5.32;;;;;;;21.23;35.55;103170.91;5036014;28;20502;-70
2022/01/11 07:18:10;;;;;;;9.80;5.72;;;;;;;21.13;35.59;103165.53;5035095;28;20200;-70
2022/01/11 07:20:38;;;;;;;11.20;6.03;;;;;;;21.12;35.82;103174.47;5039778;28;20086;-70
2022/01/11 07:23:05;;;;;;;9.57;6.00;;;;;;;21.13;35.52;103176.97;5031638;28;20032;-72
2022/01/11 07:25:32;;;;;;;9.57;5.55;;;;;;;21.33;35.51;103174.44;5034563;28;20052;-71
2022/01/11 07:28:01;;;;;;;9.77;5.97;;;;;;;21.36;35.45;103182.13;5017780;28;20098;-70
2022/01/11 07:30:27;;;;;;;9.35;5.95;;;;;;;21.46;35.43;103185.66;5034155;28;20032;-70
2022/01/11 07:32:53;;;;;;;9.68;5.70;;;;;;;21.53;35.34;103185.97;5034165;28;20109;-70
2022/01/11 07:35:18;;;;;;;9.75;5.75;;;;;;;21.41;35.33;103169.34;5048020;28;20467;-70
2022/01/11 07:37:45;;;;;;;9.50;5.57;;;;;;;21.64;35.18;103192.00;5035333;28;20028;-70
2022/01/11 07:40:13;;;;;;;11.80;6.32;;;;;;;21.58;34.92;103195.22;5034430;28;20033;-70
2022/01/11 07:42:40;;;;;;;10.07;5.70;;;;;;;21.63;35.08;103198.28;5035016;28;20037;-70
2022/01/11 07:45:25;;;;;;;12.20;6.47;;;;;;;21.55;35.25;103198.13;5052084;28;20161;-72
2022/01/11 07:47:51;;;;;;;9.63;6.18;;;;;;;21.44;35.46;103206.16;5028762;28;20491;-70
2022/01/11 07:50:17;;;;;;;10.43;5.90;;;;;;;21.52;35.22;103206.31;5034005;28;20076;-72
2022/01/11 07:52:43;;;;;;;12.15;6.32;;;;;;;21.44;35.63;103198.22;5034505;28;20577;-68
2022/01/11 07:55:09;;;;;;;11.75;6.72;;;;;;;21.43;35.31;103199.19;5030424;28;20049;-67
2022/01/11 07:57:35;;;;;;;10.63;6.47;;;;;;;21.33;35.57;103215.03;5033213;28;20394;-67
2022/01/11 08:00:05;;;;;;;11.05;6.25;;;;;;;21.28;35.61;103222.56;5033225;28;20129;-67
2022/01/11 08:02:42;;;;;;;10.90;6.63;;;;;;;21.31;35.62;103230.22;5033267;28;20045;-68
2022/01/11 08:05:18;;;;;;;12.93;7.15;;;;;;;21.35;35.33;103215.75;5036556;28;20044;-67
2022/01/11 08:07:44;;;;;;;13.35;6.75;;;;;;;21.26;35.57;103213.91;5029228;28;20037;-68
2022/01/11 08:10:18;;;;;;;13.15;7.25;;;;;;;21.29;35.16;103213.63;5035175;28;20041;-68
2022/01/11 08:12:45;;;;;;;12.90;7.43;;;;;;;21.21;35.43;103205.47;5032686;28;20091;-67
2022/01/11 08:15:12;;;;;;;12.23;7.18;;;;;;;21.12;35.64;103207.09;5033932;28;20234;-68
2022/01/11 08:17:39;;;;;;;13.52;7.22;;;;;;;21.07;35.69;103206.66;5033871;28;20047;-69
2022/01/11 08:20:05;;;;;;;11.90;7.35;;;;;;;21.02;35.51;103200.06;5049587;28;20138;-69
2022/01/11 08:22:31;;;;;;;13.85;7.38;;;;;;;21.11;35.38;103223.13;5035564;28;20092;-70
2022/01/11 08:24:56;;;;;;;11.93;6.88;;;;;;;21.15;35.53;103221.88;5036540;28;20443;-71
2022/01/11 08:27:23;;;;;;;13.95;8.00;;;;;;;21.28;35.31;103230.50;5034230;28;20047;-72
2022/01/11 08:29:50;;;;;;;13.77;8.48;;;;;;;21.38;34.97;103226.09;5036337;28;20034;-70
2022/01/11 08:32:16;;;;;;;11.70;7.22;;;;;;;21.44;34.95;103227.38;5034761;28;20029;-68
2022/01/11 08:34:43;;;;;;;16.25;7.55;;;;;;;21.54;34.66;103230.06;5035881;28;20045;-70
2022/01/11 08:37:09;;;;;;;15.13;8.35;;;;;;;21.50;35.00;103223.34;5036294;28;20041;-70
2022/01/11 08:39:36;;;;;;;12.90;7.22;;;;;;;21.52;35.02;103224.88;5033380;28;20492;-71
2022/01/11 08:42:03;;;;;;;13.55;7.97;;;;;;;21.61;34.95;103228.56;5036381;28;20060;-70
2022/01/11 08:44:29;;;;;;;15.50;7.70;;;;;;;21.64;34.86;103233.59;5036827;28;20434;-70
2022/01/11 08:46:56;;;;;;;12.32;7.25;;;;;;;21.62;35.07;103232.91;5034737;28;20041;-70
2022/01/11 08:49:29;;;;;;;13.80;7.43;;;;;;;21.67;35.07;103235.97;5034469;28;20381;-70
2022/01/11 08:51:54;;;;;;;13.35;7.00;;;;;;;21.42;35.10;103232.81;5037205;28;20042;-70
2022/01/11 08:54:24;;;;;;;11.40;6.95;;;;;;;21.49;35.38;103237.56;5037450;28;21098;-68
2022/01/11 08:56:54;;;;;;;11.52;6.82;;;;;;;21.44;35.33;103239.78;5034687;28;20033;-70
2022/01/11 08:59:21;;;;;;;14.27;7.70;;;;;;;21.36;35.34;103238.66;5037238;28;20099;-70
2022/01/11 09:01:48;;;;;;;14.52;8.07;;;;;;;21.36;35.72;103230.69;5053913;28;20037;-70
2022/01/11 09:04:14;;;;;;;17.17;9.13;;;;;;;21.41;35.25;103233.78;5033016;28;20037;-69
2022/01/11 09:06:58;;;;;;;18.05;7.82;;;;;;;21.61;35.01;103237.34;5050773;28;20038;-68
2022/01/11 09:09:28;;;;;;;18.13;8.40;;;;;;;21.63;34.54;103235.41;5034017;28;20037;-68
2022/01/11 09:11:57;;;;;;;18.17;9.25;;;;;;;21.68;34.61;103233.19;5037462;28;20036;-70
2022/01/11 09:14:24;;;;;;;15.07;8.82;;;;;;;21.73;34.25;103232.81;5032447;28;20070;-70
2022/01/11 09:16:51;;;;;;;17.70;8.57;;;;;;;21.71;34.23;103237.38;5037422;28;20333;-70
2022/01/11 09:19:20;;;;;;;15.93;8.77;;;;;;;21.66;34.67;103239.59;5019995;28;20028;-70
2022/01/11 09:21:47;;;;;;;17.42;9.18;;;;;;;21.61;34.76;103241.81;5038811;28;20041;-70
2022/01/11 09:24:19;;;;;;;17.38;8.27;;;;;;;21.49;34.84;103246.38;5034830;28;20039;-70
2022/01/11 09:26:46;;;;;;;14.70;8.10;;;;;;;21.39;35.35;103238.38;5036509;28;20616;-70
2022/01/11 09:29:13;;;;;;;14.98;7.85;;;;;;;21.44;35.41;103229.19;5011863;28;20048;-68
2022/01/11 09:31:39;;;;;;;13.02;7.47;;;;;;;21.77;35.15;103249.28;5031358;28;20504;-67
2022/01/11 09:34:05;;;;;;;14.00;7.82;;;;;;;21.77;35.21;103247.47;5036290;28;20043;-66
2022/01/11 09:36:31;;;;;;;14.70;7.63;;;;;;;22.01;35.02;103252.41;5034197;28;20063;-66
2022/01/11 09:38:57;;;;;;;14.18;6.57;;;;;;;22.07;35.05;103251.06;5032815;28;20120;-69
2022/01/11 09:41:23;;;;;;;14.07;8.00;;;;;;;22.04;35.17;103252.16;5035574;28;20037;-65
2022/01/11 09:43:49;;;;;;;13.25;7.47;;;;;;;22.27;34.69;103242.19;5037738;28;20102;-65
2022/01/11 09:46:17;;;;;;;15.55;9.18;;;;;;;22.33;34.89;103256.72;5007486;28;20507;-65
2022/01/11 09:48:45;;;;;;;11.75;7.28;;;;;;;22.30;34.86;103258.66;5038838;28;20037;-65
2022/01/11 09:51:12;;;;;;;14.32;7.35;;;;;;;22.46;34.63;103252.81;5012666;28;20044;-66
2022/01/11 09:53:40;;;;;;;14.25;8.00;;;;;;;22.34;34.47;103251.25;5036378;28;20045;-68
2022/01/11 09:56:09;;;;;;;12.80;6.97;;;;;;;22.28;34.87;103257.13;5010932;28;20400;-68
2022/01/11 09:58:38;;;;;;;15.25;8.15;;;;;;;22.41;35.22;103241.75;5036254;28;20183;-67
2022/01/11 10:01:41;;;;;;;11.35;6.68;;;;;;;22.49;34.90;103239.25;4992239;28;20070;-69
2022/01/11 10:04:11;;;;;;;13.02;7.07;;;;;;;22.53;34.83;103245.97;5039395;28;20505;-69
2022/01/11 10:07:00;;;;;;;12.60;6.50;;;;;;;22.58;34.86;103246.38;5007881;28;20600;-68
2022/01/11 10:09:29;;;;;;;11.38;6.60;;;;;;;22.66;34.67;103239.53;5032171;28;20435;-68
2022/01/11 10:12:02;;;;;;;11.73;6.68;;;;;;;22.60;35.43;103239.09;5011056;28;20831;-69
2022/01/11 10:14:35;;;;;;;13.77;7.57;;;;;;;22.68;34.68;103246.38;5034748;28;20068;-68
2022/01/11 10:17:17;;;;;;;10.35;6.35;;;;;;;22.74;34.83;103237.84;5008693;28;20043;-68
2022/01/11 10:19:46;;;;;;;;;;;;;;;22.81;34.89;103238.97;5026708;28;20044;-68
2022/01/11 10:22:19;;;;;;;13.20;6.88;;;;;;;22.79;34.64;103243.56;5014783;28;19920;-68
2022/01/11 10:24:49;;;;;;;11.50;7.30;;;;;;;22.65;34.99;103257.28;5027610;28;20042;-69
2022/01/11 10:27:34;;;;;;;11.98;6.50;;;;;;;22.74;35.00;103261.75;5029563;28;20041;-71
2022/01/11 10:30:04;;;;;;;9.07;5.97;;;;;;;;;;4988081;28;20041;-68
2022/01/11 10:32:35;;;;;;;;;;;;;;;22.85;35.28;103259.00;5038829;28;20032;-68
2022/01/11 10:35:25;;;;;;;10.48;6.35;;;;;;;22.79;34.81;103254.19;4991769;28;20114;-67
2022/01/11 10:38:03;;;;;;;9.60;6.47;;;;;;;22.83;34.70;103239.69;5034489;28;20029;-70
2022/01/11 10:40:34;;;;;;;10.27;6.28;;;;;;;22.81;34.79;103238.97;5014302;28;20152;-70
2022/01/11 10:43:08;;;;;;;9.38;6.10;;;;;;;22.80;34.96;103242.63;5034268;28;20716;-68
2022/01/11 10:45:46;;;;;;;11.70;6.20;;;;;;;22.74;34.88;103237.84;5009649;28;20037;-67
2022/01/11 10:48:19;;;;;;;10.60;6.50;;;;;;;22.54;35.47;103239.66;5032128;28;20076;-69
2022/01/11 10:50:48;;;;;;;9.80;6.57;;;;;;;22.59;35.33;103239.25;4997441;28;20033;-69
2022/01/11 10:53:23;;;;;;;11.48;6.18;;;;;;;22.59;35.30;103239.25;5045941;28;20039;-71
2022/01/11 10:55:54;;;;;;;10.15;6.55;;;;;;;22.57;34.80;103236.72;5009936;28;20029;-68
2022/01/11 10:58:22;;;;;;;9.13;6.63;;;;;;;22.57;34.92;103228.75;5045226;28;20025;-73
2022/01/11 11:00:53;;;;;;;14.70;6.13;;;;;;;22.59;34.88;103224.16;5015305;28;20037;-72
2022/01/11 11:03:22;;;;;;;10.35;5.97;;;;;;;22.61;35.10;103219.53;5028940;28;20074;-71
2022/01/11 11:06:05;;;;;;;8.68;5.75;;;;;;;22.41;35.17;103178.03;5003419;28;20107;-70
2022/01/11 11:08:38;;;;;;;10.07;5.90;;;;;;;22.64;34.84;103223.75;5020111;28;20064;-70
2022/01/11 11:11:27;;;;;;;8.68;5.57;;;;;;;22.64;34.94;103229.06;5032130;28;20036;-70
2022/01/11 11:14:13;;;;;;;8.85;5.35;;;;;;;22.49;35.60;103230.47;5012181;28;20111;-71
2022/01/11 11:16:44;;;;;;;;;;;;;;;22.48;35.35;103234.94;5039376;28;20037;-72
2022/01/11 11:19:12;;;;;;;9.32;5.20;;;;;;;22.64;35.51;103231.72;5002863;28;19921;-68
2022/01/11 11:21:43;;;;;;;7.75;4.95;;;;;;;22.78;35.54;103225.94;5032663;28;20115;-69
2022/01/11 11:24:14;;;;;;;8.20;5.45;;;;;;;22.83;35.36;103221.09;5001368;28;20494;-68
2022/01/11 11:26:48;;;;;;;7.65;5.40;;;;;;;22.89;34.68;103215.22;5020167;28;20131;-69
2022/01/11 11:29:15;;;;;;;8.02;4.88;;;;;;;22.81;35.27;103223.03;5033943;28;20032;-70
2022/01/11 11:31:41;;;;;;;7.80;5.30;;;;;;;22.85;34.75;103224.44;4999653;28;20033;-71